sensor_id;sensor_type;location;lat;lon;timestamp;temperature;humidity
11511;DHT22;5812;48.864;9.190;2022-12-15T00:02:19;-1.90;99.90
11511;DHT22;5812;48.864;9.190;2022-12-15T00:05:03;-1.90;99.90
11511;DHT22;5812;48.864;9.190;2022-12-15T00:07:47;-1.90;99.90
11511;DHT22;5812;48.864;9.190;2022-12-15T00:10:31;-1.80;99.90
11511;DHT22;5812;48.864;9.190;2022-12-15T00:13:15;-1.90;99.90
11511;DHT22;5812;48.864;9.190;2022-12-15T00:15:59;-2.00;99.90
11511;DHT22;5812;48.864;9.190;2022-12-15T00:18:43;-2.00;99.90
11511;DHT22;5812;48.864;9.190;2022-12-15T00:21:27;-1.90;99.90
11511;DHT22;5812;48.864;9.190;2022-12-15T00:24:11;-1.90;99.90
11511;DHT22;5812;48.864;9.190;2022-12-15T00:26:55;-1.90;99.90
11511;DHT22;5812;48.864;9.190;2022-12-15T00:29:39;-2.00;99.90
11511;DHT22;5812;48.864;9.190;2022-12-15T00:32:23;-1.90;99.90
11511;DHT22;5812;48.864;9.190;2022-12-15T00:35:08;-2.00;99.90
11511;DHT22;5812;48.864;9.190;2022-12-15T00:37:52;-1.90;99.90
11511;DHT22;5812;48.864;9.190;2022-12-15T00:40:36;-1.90;99.90
11511;DHT22;5812;48.864;9.190;2022-12-15T00:43:02;-1.90;99.90
11511;DHT22;5812;48.864;9.190;2022-12-15T00:45:27;-1.90;99.90
11511;DHT22;5812;48.864;9.190;2022-12-15T00:48:13;-1.90;99.90
11511;DHT22;5812;48.864;9.190;2022-12-15T00:50:40;-1.90;99.90
11511;DHT22;5812;48.864;9.190;2022-12-15T00:53:19;-1.90;99.90
11511;DHT22;5812;48.864;9.190;2022-12-15T00:56:04;-2.00;99.90
11511;DHT22;5812;48.864;9.190;2022-12-15T00:58:48;-2.00;99.90
11511;DHT22;5812;48.864;9.190;2022-12-15T01:01:32;-2.00;99.90
11511;DHT22;5812;48.864;9.190;2022-12-15T01:04:16;-2.00;99.90
11511;DHT22;5812;48.864;9.190;2022-12-15T01:07:00;-2.00;99.90
11511;DHT22;5812;48.864;9.190;2022-12-15T01:09:44;-2.00;99.90
11511;DHT22;5812;48.864;9.190;2022-12-15T01:12:28;-1.90;99.90
11511;DHT22;5812;48.864;9.190;2022-12-15T01:15:12;-2.00;99.90
11511;DHT22;5812;48.864;9.190;2022-12-15T01:17:57;-2.00;99.90
11511;DHT22;5812;48.864;9.190;2022-12-15T01:20:41;-2.00;99.90
11511;DHT22;5812;48.864;9.190;2022-12-15T01:23:07;-1.90;99.90
11511;DHT22;5812;48.864;9.190;2022-12-15T01:25:32;-1.90;99.90
11511;DHT22;5812;48.864;9.190;2022-12-15T01:27:58;-1.90;99.90
11511;DHT22;5812;48.864;9.190;2022-12-15T01:30:25;-1.90;99.90
11511;DHT22;5812;48.864;9.190;2022-12-15T01:32:51;-2.00;99.90
11511;DHT22;5812;48.864;9.190;2022-12-15T01:35:17;-2.00;99.90
11511;DHT22;5812;48.864;9.190;2022-12-15T01:37:44;-2.00;99.90
11511;DHT22;5812;48.864;9.190;2022-12-15T01:40:15;-2.00;99.90
11511;DHT22;5812;48.864;9.190;2022-12-15T01:42:59;-1.90;99.90
11511;DHT22;5812;48.864;9.190;2022-12-15T01:50:29;-1.80;99.90
11511;DHT22;5812;48.864;9.190;2022-12-15T01:52:55;-1.80;99.90
11511;DHT22;5812;48.864;9.190;2022-12-15T01:55:23;-1.90;99.90
11511;DHT22;5812;48.864;9.190;2022-12-15T01:57:56;-1.80;99.90
11511;DHT22;5812;48.864;9.190;2022-12-15T02:00:25;-1.70;99.90
11511;DHT22;5812;48.864;9.190;2022-12-15T02:02:51;-1.80;99.90
11511;DHT22;5812;48.864;9.190;2022-12-15T02:05:19;-1.80;99.90
11511;DHT22;5812;48.864;9.190;2022-12-15T02:07:45;-1.80;99.90
11511;DHT22;5812;48.864;9.190;2022-12-15T02:10:11;-1.80;99.90
11511;DHT22;5812;48.864;9.190;2022-12-15T02:18:36;-1.70;99.90
11511;DHT22;5812;48.864;9.190;2022-12-15T02:21:31;-1.70;99.90
11511;DHT22;5812;48.864;9.190;2022-12-15T02:29:47;-1.70;99.90
11511;DHT22;5812;48.864;9.190;2022-12-15T02:32:20;-1.70;99.90
11511;DHT22;5812;48.864;9.190;2022-12-15T02:35:05;-1.70;99.90
11511;DHT22;5812;48.864;9.190;2022-12-15T02:37:35;-1.70;99.90
11511;DHT22;5812;48.864;9.190;2022-12-15T02:40:04;-1.70;99.90
11511;DHT22;5812;48.864;9.190;2022-12-15T02:42:31;-1.70;99.90
11511;DHT22;5812;48.864;9.190;2022-12-15T02:45:09;-1.70;99.90
11511;DHT22;5812;48.864;9.190;2022-12-15T02:54:06;-1.60;99.90
11511;DHT22;5812;48.864;9.190;2022-12-15T03:01:33;-1.60;99.90
11511;DHT22;5812;48.864;9.190;2022-12-15T03:04:02;-1.70;99.90
11511;DHT22;5812;48.864;9.190;2022-12-15T03:06:29;-1.70;99.90
11511;DHT22;5812;48.864;9.190;2022-12-15T03:08:55;-1.70;99.90
11511;DHT22;5812;48.864;9.190;2022-12-15T03:11:20;-1.60;99.90
11511;DHT22;5812;48.864;9.190;2022-12-15T03:13:46;-1.70;99.90
11511;DHT22;5812;48.864;9.190;2022-12-15T03:16:12;-1.70;99.90
11511;DHT22;5812;48.864;9.190;2022-12-15T03:18:37;-1.70;99.90
11511;DHT22;5812;48.864;9.190;2022-12-15T03:21:03;-1.70;99.90
11511;DHT22;5812;48.864;9.190;2022-12-15T03:23:28;-1.70;99.90
11511;DHT22;5812;48.864;9.190;2022-12-15T03:25:54;-1.70;99.90
11511;DHT22;5812;48.864;9.190;2022-12-15T03:28:20;-1.70;99.90
11511;DHT22;5812;48.864;9.190;2022-12-15T03:30:48;-1.80;99.90
11511;DHT22;5812;48.864;9.190;2022-12-15T03:33:14;-1.70;99.90
11511;DHT22;5812;48.864;9.190;2022-12-15T03:35:40;-1.70;99.90
11511;DHT22;5812;48.864;9.190;2022-12-15T03:38:05;-1.70;99.90
11511;DHT22;5812;48.864;9.190;2022-12-15T03:40:31;-1.70;99.90
11511;DHT22;5812;48.864;9.190;2022-12-15T03:42:56;-1.70;99.90
11511;DHT22;5812;48.864;9.190;2022-12-15T03:45:25;-1.70;99.90
11511;DHT22;5812;48.864;9.190;2022-12-15T03:47:52;-1.70;99.90
11511;DHT22;5812;48.864;9.190;2022-12-15T03:50:23;-1.70;99.90
11511;DHT22;5812;48.864;9.190;2022-12-15T03:52:54;-1.70;99.90
11511;DHT22;5812;48.864;9.190;2022-12-15T03:55:21;-1.70;99.90
11511;DHT22;5812;48.864;9.190;2022-12-15T03:57:47;-1.70;99.90
11511;DHT22;5812;48.864;9.190;2022-12-15T04:00:13;-1.70;99.90
11511;DHT22;5812;48.864;9.190;2022-12-15T04:02:40;-1.70;99.90
11511;DHT22;5812;48.864;9.190;2022-12-15T04:05:07;-1.70;99.90
11511;DHT22;5812;48.864;9.190;2022-12-15T04:07:32;-1.70;99.90
11511;DHT22;5812;48.864;9.190;2022-12-15T04:09:58;-1.70;99.90
11511;DHT22;5812;48.864;9.190;2022-12-15T04:12:23;-1.70;99.90
11511;DHT22;5812;48.864;9.190;2022-12-15T04:14:49;-1.70;99.90
11511;DHT22;5812;48.864;9.190;2022-12-15T04:17:15;-1.60;99.90
11511;DHT22;5812;48.864;9.190;2022-12-15T04:19:40;-1.70;99.90
11511;DHT22;5812;48.864;9.190;2022-12-15T04:22:24;-1.70;99.90
11511;DHT22;5812;48.864;9.190;2022-12-15T04:24:50;-1.70;99.90
11511;DHT22;5812;48.864;9.190;2022-12-15T04:27:34;-1.80;99.90
11511;DHT22;5812;48.864;9.190;2022-12-15T04:30:18;-1.70;99.90
11511;DHT22;5812;48.864;9.190;2022-12-15T04:33:03;-1.70;99.90
11511;DHT22;5812;48.864;9.190;2022-12-15T04:35:48;-1.70;99.90
11511;DHT22;5812;48.864;9.190;2022-12-15T04:38:32;-1.70;99.90
11511;DHT22;5812;48.864;9.190;2022-12-15T04:41:17;-1.70;99.90
11511;DHT22;5812;48.864;9.190;2022-12-15T04:44:02;-1.70;99.90
11511;DHT22;5812;48.864;9.190;2022-12-15T04:46:46;-1.70;99.90
11511;DHT22;5812;48.864;9.190;2022-12-15T04:49:30;-1.70;99.90
11511;DHT22;5812;48.864;9.190;2022-12-15T04:52:14;-1.70;99.90
11511;DHT22;5812;48.864;9.190;2022-12-15T04:54:58;-1.70;99.90
11511;DHT22;5812;48.864;9.190;2022-12-15T04:57:42;-1.70;99.90
11511;DHT22;5812;48.864;9.190;2022-12-15T05:00:26;-1.70;99.90
11511;DHT22;5812;48.864;9.190;2022-12-15T05:03:10;-1.70;99.90
11511;DHT22;5812;48.864;9.190;2022-12-15T05:05:54;-1.70;99.90
11511;DHT22;5812;48.864;9.190;2022-12-15T05:08:38;-1.70;99.90
11511;DHT22;5812;48.864;9.190;2022-12-15T05:11:22;-1.70;99.90
11511;DHT22;5812;48.864;9.190;2022-12-15T05:14:06;-1.70;99.90
11511;DHT22;5812;48.864;9.190;2022-12-15T05:16:50;-1.70;99.90
11511;DHT22;5812;48.864;9.190;2022-12-15T05:19:34;-1.60;99.90
11511;DHT22;5812;48.864;9.190;2022-12-15T05:22:18;-1.70;99.90
11511;DHT22;5812;48.864;9.190;2022-12-15T05:25:02;-1.70;99.90
11511;DHT22;5812;48.864;9.190;2022-12-15T05:27:46;-1.70;99.90
11511;DHT22;5812;48.864;9.190;2022-12-15T05:30:30;-1.70;99.90
11511;DHT22;5812;48.864;9.190;2022-12-15T05:33:14;-1.70;99.90
11511;DHT22;5812;48.864;9.190;2022-12-15T05:35:40;-1.70;99.90
11511;DHT22;5812;48.864;9.190;2022-12-15T05:38:05;-1.70;99.90
11511;DHT22;5812;48.864;9.190;2022-12-15T05:40:31;-1.70;99.90
11511;DHT22;5812;48.864;9.190;2022-12-15T05:42:57;-1.70;99.90
11511;DHT22;5812;48.864;9.190;2022-12-15T05:45:24;-1.70;99.90
11511;DHT22;5812;48.864;9.190;2022-12-15T05:47:53;-1.70;99.90
11511;DHT22;5812;48.864;9.190;2022-12-15T05:50:20;-1.60;99.90
11511;DHT22;5812;48.864;9.190;2022-12-15T05:52:45;-1.60;99.90
11511;DHT22;5812;48.864;9.190;2022-12-15T05:55:11;-1.60;99.90
11511;DHT22;5812;48.864;9.190;2022-12-15T05:57:37;-1.60;99.90
11511;DHT22;5812;48.864;9.190;2022-12-15T06:00:03;-1.70;99.90
11511;DHT22;5812;48.864;9.190;2022-12-15T06:02:30;-1.70;99.90
11511;DHT22;5812;48.864;9.190;2022-12-15T06:04:56;-1.80;99.90
11511;DHT22;5812;48.864;9.190;2022-12-15T06:07:21;-1.80;99.90
11511;DHT22;5812;48.864;9.190;2022-12-15T06:09:47;-1.80;99.90
11511;DHT22;5812;48.864;9.190;2022-12-15T06:12:12;-1.80;99.90
11511;DHT22;5812;48.864;9.190;2022-12-15T06:14:38;-1.90;99.90
11511;DHT22;5812;48.864;9.190;2022-12-15T06:17:04;-1.80;99.90
11511;DHT22;5812;48.864;9.190;2022-12-15T06:19:29;-1.90;99.90
11511;DHT22;5812;48.864;9.190;2022-12-15T06:21:55;-1.80;99.90
11511;DHT22;5812;48.864;9.190;2022-12-15T06:24:20;-1.80;99.90
11511;DHT22;5812;48.864;9.190;2022-12-15T06:26:46;-1.80;99.90
11511;DHT22;5812;48.864;9.190;2022-12-15T06:29:12;-1.80;99.90
11511;DHT22;5812;48.864;9.190;2022-12-15T06:31:39;-1.70;99.90
11511;DHT22;5812;48.864;9.190;2022-12-15T06:34:10;-1.70;99.90
11511;DHT22;5812;48.864;9.190;2022-12-15T06:36:36;-1.70;99.90
11511;DHT22;5812;48.864;9.190;2022-12-15T06:39:03;-1.70;99.90
11511;DHT22;5812;48.864;9.190;2022-12-15T06:41:30;-1.70;99.90
11511;DHT22;5812;48.864;9.190;2022-12-15T06:43:56;-1.70;99.90
11511;DHT22;5812;48.864;9.190;2022-12-15T06:46:23;-1.70;99.90
11511;DHT22;5812;48.864;9.190;2022-12-15T06:48:49;-1.70;99.90
11511;DHT22;5812;48.864;9.190;2022-12-15T06:51:15;-1.70;99.90
11511;DHT22;5812;48.864;9.190;2022-12-15T06:53:42;-1.70;99.90
11511;DHT22;5812;48.864;9.190;2022-12-15T06:56:20;-1.60;99.90
11511;DHT22;5812;48.864;9.190;2022-12-15T06:58:49;-1.60;99.90
11511;DHT22;5812;48.864;9.190;2022-12-15T07:01:16;-1.70;99.90
11511;DHT22;5812;48.864;9.190;2022-12-15T07:03:41;-1.70;99.90
11511;DHT22;5812;48.864;9.190;2022-12-15T07:06:09;-1.70;99.90
11511;DHT22;5812;48.864;9.190;2022-12-15T07:08:35;-1.70;99.90
11511;DHT22;5812;48.864;9.190;2022-12-15T07:11:10;-1.70;99.90
11511;DHT22;5812;48.864;9.190;2022-12-15T07:13:36;-1.60;99.90
11511;DHT22;5812;48.864;9.190;2022-12-15T07:16:03;-1.60;99.90
11511;DHT22;5812;48.864;9.190;2022-12-15T07:18:29;-1.60;99.90
11511;DHT22;5812;48.864;9.190;2022-12-15T07:20:55;-1.60;99.90
11511;DHT22;5812;48.864;9.190;2022-12-15T07:23:21;-1.60;99.90
11511;DHT22;5812;48.864;9.190;2022-12-15T07:25:47;-1.60;99.90
11511;DHT22;5812;48.864;9.190;2022-12-15T07:28:12;-1.60;99.90
11511;DHT22;5812;48.864;9.190;2022-12-15T07:30:38;-1.60;99.90
11511;DHT22;5812;48.864;9.190;2022-12-15T07:33:04;-1.60;99.90
11511;DHT22;5812;48.864;9.190;2022-12-15T07:35:30;-1.50;99.90
11511;DHT22;5812;48.864;9.190;2022-12-15T07:37:56;-1.50;99.90
11511;DHT22;5812;48.864;9.190;2022-12-15T07:40:22;-1.40;99.90
11511;DHT22;5812;48.864;9.190;2022-12-15T07:42:47;-1.30;99.90
11511;DHT22;5812;48.864;9.190;2022-12-15T07:45:13;-1.30;99.90
11511;DHT22;5812;48.864;9.190;2022-12-15T07:47:39;-1.30;99.90
11511;DHT22;5812;48.864;9.190;2022-12-15T07:50:05;-1.30;99.90
11511;DHT22;5812;48.864;9.190;2022-12-15T07:52:30;-1.20;99.90
11511;DHT22;5812;48.864;9.190;2022-12-15T07:54:56;-1.20;99.90
11511;DHT22;5812;48.864;9.190;2022-12-15T07:57:22;-1.20;99.90
11511;DHT22;5812;48.864;9.190;2022-12-15T07:59:48;-0.70;99.90
11511;DHT22;5812;48.864;9.190;2022-12-15T08:02:14;-0.40;99.90
11511;DHT22;5812;48.864;9.190;2022-12-15T08:04:40;-0.60;99.90
11511;DHT22;5812;48.864;9.190;2022-12-15T08:07:06;-0.70;99.90
11511;DHT22;5812;48.864;9.190;2022-12-15T08:09:32;-0.90;99.90
11511;DHT22;5812;48.864;9.190;2022-12-15T08:11:57;-0.90;99.90
11511;DHT22;5812;48.864;9.190;2022-12-15T08:14:23;-0.80;99.90
11511;DHT22;5812;48.864;9.190;2022-12-15T08:16:49;-0.90;99.90
11511;DHT22;5812;48.864;9.190;2022-12-15T08:19:15;-0.80;99.90
11511;DHT22;5812;48.864;9.190;2022-12-15T08:21:43;-0.80;99.90
11511;DHT22;5812;48.864;9.190;2022-12-15T08:24:10;-0.70;99.90
11511;DHT22;5812;48.864;9.190;2022-12-15T08:26:37;-0.70;99.90
11511;DHT22;5812;48.864;9.190;2022-12-15T08:29:04;-0.70;99.90
11511;DHT22;5812;48.864;9.190;2022-12-15T08:31:31;-0.60;99.90
11511;DHT22;5812;48.864;9.190;2022-12-15T08:33:58;-0.60;99.90
11511;DHT22;5812;48.864;9.190;2022-12-15T08:36:24;-0.60;99.90
11511;DHT22;5812;48.864;9.190;2022-12-15T08:38:50;-0.60;99.90
11511;DHT22;5812;48.864;9.190;2022-12-15T08:41:22;-0.50;99.90
11511;DHT22;5812;48.864;9.190;2022-12-15T08:43:49;-0.40;99.90
11511;DHT22;5812;48.864;9.190;2022-12-15T08:46:16;-0.40;99.90
11511;DHT22;5812;48.864;9.190;2022-12-15T08:48:42;-0.40;99.90
11511;DHT22;5812;48.864;9.190;2022-12-15T08:51:08;-0.40;99.90
11511;DHT22;5812;48.864;9.190;2022-12-15T08:53:34;-0.30;99.90
11511;DHT22;5812;48.864;9.190;2022-12-15T08:56:19;-0.30;99.90
11511;DHT22;5812;48.864;9.190;2022-12-15T08:58:46;-0.20;99.90
11511;DHT22;5812;48.864;9.190;2022-12-15T09:01:19;-0.20;99.90
11511;DHT22;5812;48.864;9.190;2022-12-15T09:03:45;-0.10;99.90
11511;DHT22;5812;48.864;9.190;2022-12-15T09:06:13;0.00;99.90
11511;DHT22;5812;48.864;9.190;2022-12-15T09:08:39;0.00;99.90
11511;DHT22;5812;48.864;9.190;2022-12-15T09:11:05;0.00;99.90
11511;DHT22;5812;48.864;9.190;2022-12-15T09:13:31;0.00;99.90
11511;DHT22;5812;48.864;9.190;2022-12-15T09:15:58;0.00;99.90
11511;DHT22;5812;48.864;9.190;2022-12-15T09:18:23;0.10;99.90
11511;DHT22;5812;48.864;9.190;2022-12-15T09:20:49;0.10;99.90
11511;DHT22;5812;48.864;9.190;2022-12-15T09:23:14;0.30;99.90
11511;DHT22;5812;48.864;9.190;2022-12-15T09:25:40;0.20;99.90
11511;DHT22;5812;48.864;9.190;2022-12-15T09:28:06;0.30;99.90
11511;DHT22;5812;48.864;9.190;2022-12-15T09:30:31;0.40;99.90
11511;DHT22;5812;48.864;9.190;2022-12-15T09:32:57;0.40;99.90
11511;DHT22;5812;48.864;9.190;2022-12-15T09:35:25;0.40;99.90
11511;DHT22;5812;48.864;9.190;2022-12-15T09:37:51;0.50;99.90
11511;DHT22;5812;48.864;9.190;2022-12-15T09:40:18;0.50;99.90
11511;DHT22;5812;48.864;9.190;2022-12-15T09:42:46;0.40;99.90
11511;DHT22;5812;48.864;9.190;2022-12-15T09:45:23;0.40;99.90
11511;DHT22;5812;48.864;9.190;2022-12-15T09:48:04;0.40;99.90
11511;DHT22;5812;48.864;9.190;2022-12-15T09:50:34;0.60;99.90
11511;DHT22;5812;48.864;9.190;2022-12-15T09:53:01;0.70;99.90
11511;DHT22;5812;48.864;9.190;2022-12-15T09:55:29;0.80;99.90
11511;DHT22;5812;48.864;9.190;2022-12-15T09:58:02;0.90;99.90
11511;DHT22;5812;48.864;9.190;2022-12-15T10:00:39;0.70;99.90
11511;DHT22;5812;48.864;9.190;2022-12-15T10:06:07;0.90;99.90
11511;DHT22;5812;48.864;9.190;2022-12-15T10:08:39;0.80;99.90
11511;DHT22;5812;48.864;9.190;2022-12-15T10:11:20;0.70;99.90
11511;DHT22;5812;48.864;9.190;2022-12-15T10:14:11;0.60;99.90
11511;DHT22;5812;48.864;9.190;2022-12-15T10:16:54;0.60;99.90
11511;DHT22;5812;48.864;9.190;2022-12-15T10:19:39;0.60;99.90
11511;DHT22;5812;48.864;9.190;2022-12-15T10:22:13;0.50;99.90
11511;DHT22;5812;48.864;9.190;2022-12-15T10:24:41;0.40;99.90
11511;DHT22;5812;48.864;9.190;2022-12-15T10:29:44;0.40;99.90
11511;DHT22;5812;48.864;9.190;2022-12-15T10:34:52;0.50;99.90
11511;DHT22;5812;48.864;9.190;2022-12-15T10:37:19;0.50;99.90
11511;DHT22;5812;48.864;9.190;2022-12-15T10:39:47;0.50;99.90
11511;DHT22;5812;48.864;9.190;2022-12-15T10:42:17;0.60;99.90
11511;DHT22;5812;48.864;9.190;2022-12-15T10:44:47;0.80;99.90
11511;DHT22;5812;48.864;9.190;2022-12-15T10:47:19;1.00;99.90
11511;DHT22;5812;48.864;9.190;2022-12-15T10:49:45;1.00;99.90
11511;DHT22;5812;48.864;9.190;2022-12-15T10:52:24;1.10;99.90
11511;DHT22;5812;48.864;9.190;2022-12-15T10:54:53;1.20;99.90
11511;DHT22;5812;48.864;9.190;2022-12-15T10:57:22;1.20;99.90
11511;DHT22;5812;48.864;9.190;2022-12-15T10:59:49;1.20;99.90
11511;DHT22;5812;48.864;9.190;2022-12-15T11:05:08;1.10;99.90
11511;DHT22;5812;48.864;9.190;2022-12-15T11:10:28;0.90;99.90
11511;DHT22;5812;48.864;9.190;2022-12-15T11:13:17;1.00;99.90
11511;DHT22;5812;48.864;9.190;2022-12-15T11:15:53;1.10;99.90
11511;DHT22;5812;48.864;9.190;2022-12-15T11:19:03;1.00;99.90
11511;DHT22;5812;48.864;9.190;2022-12-15T11:21:35;1.00;99.90
11511;DHT22;5812;48.864;9.190;2022-12-15T11:24:34;1.00;99.90
11511;DHT22;5812;48.864;9.190;2022-12-15T11:27:23;1.10;99.90
11511;DHT22;5812;48.864;9.190;2022-12-15T11:30:13;1.20;99.90
11511;DHT22;5812;48.864;9.190;2022-12-15T11:32:43;1.30;99.90
11511;DHT22;5812;48.864;9.190;2022-12-15T11:35:17;1.10;99.90
11511;DHT22;5812;48.864;9.190;2022-12-15T11:37:50;1.10;99.90
11511;DHT22;5812;48.864;9.190;2022-12-15T11:40:38;1.00;99.90
11511;DHT22;5812;48.864;9.190;2022-12-15T11:54:45;1.30;99.90
11511;DHT22;5812;48.864;9.190;2022-12-15T12:11:17;1.30;99.90
11511;DHT22;5812;48.864;9.190;2022-12-15T12:16:39;1.20;99.90
11511;DHT22;5812;48.864;9.190;2022-12-15T12:19:09;1.30;99.90
11511;DHT22;5812;48.864;9.190;2022-12-15T12:21:49;1.20;99.90
11511;DHT22;5812;48.864;9.190;2022-12-15T12:24:43;1.30;99.90
11511;DHT22;5812;48.864;9.190;2022-12-15T12:27:24;1.30;99.90
11511;DHT22;5812;48.864;9.190;2022-12-15T12:29:54;1.30;99.90
11511;DHT22;5812;48.864;9.190;2022-12-15T12:32:33;1.50;99.90
11511;DHT22;5812;48.864;9.190;2022-12-15T12:35:56;1.50;99.90
11511;DHT22;5812;48.864;9.190;2022-12-15T12:38:12;1.60;99.90
11511;DHT22;5812;48.864;9.190;2022-12-15T12:41:02;1.80;99.90
11511;DHT22;5812;48.864;9.190;2022-12-15T12:43:40;1.80;99.90
11511;DHT22;5812;48.864;9.190;2022-12-15T12:46:24;1.80;99.90
11511;DHT22;5812;48.864;9.190;2022-12-15T12:51:39;1.90;99.90
11511;DHT22;5812;48.864;9.190;2022-12-15T12:56:59;2.00;99.90
11511;DHT22;5812;48.864;9.190;2022-12-15T13:07:35;1.90;99.90
11511;DHT22;5812;48.864;9.190;2022-12-15T13:12:48;2.00;99.90
11511;DHT22;5812;48.864;9.190;2022-12-15T13:15:41;2.20;99.90
11511;DHT22;5812;48.864;9.190;2022-12-15T13:18:17;2.20;99.90
11511;DHT22;5812;48.864;9.190;2022-12-15T13:20:44;2.10;99.90
11511;DHT22;5812;48.864;9.190;2022-12-15T13:42:15;1.80;99.90
11511;DHT22;5812;48.864;9.190;2022-12-15T13:44:47;1.80;99.90
11511;DHT22;5812;48.864;9.190;2022-12-15T13:49:51;1.50;99.90
11511;DHT22;5812;48.864;9.190;2022-12-15T13:55:51;1.60;99.90
11511;DHT22;5812;48.864;9.190;2022-12-15T13:58:11;1.40;99.90
11511;DHT22;5812;48.864;9.190;2022-12-15T14:00:53;1.20;99.90
11511;DHT22;5812;48.864;9.190;2022-12-15T14:03:19;1.30;99.90
11511;DHT22;5812;48.864;9.190;2022-12-15T14:06:11;1.30;99.90
11511;DHT22;5812;48.864;9.190;2022-12-15T14:08:50;1.20;99.90
11511;DHT22;5812;48.864;9.190;2022-12-15T14:11:22;1.30;99.90
11511;DHT22;5812;48.864;9.190;2022-12-15T14:13:49;1.20;99.90
11511;DHT22;5812;48.864;9.190;2022-12-15T14:16:19;1.10;99.90
11511;DHT22;5812;48.864;9.190;2022-12-15T14:19:11;1.00;99.90
11511;DHT22;5812;48.864;9.190;2022-12-15T14:21:38;1.00;99.90
11511;DHT22;5812;48.864;9.190;2022-12-15T14:24:20;1.00;99.90
11511;DHT22;5812;48.864;9.190;2022-12-15T14:26:47;0.90;99.90
11511;DHT22;5812;48.864;9.190;2022-12-15T14:29:12;1.00;99.90
11511;DHT22;5812;48.864;9.190;2022-12-15T14:31:38;1.00;99.90
11511;DHT22;5812;48.864;9.190;2022-12-15T14:36:31;1.00;99.90
11511;DHT22;5812;48.864;9.190;2022-12-15T14:39:03;0.90;99.90
11511;DHT22;5812;48.864;9.190;2022-12-15T14:41:42;0.90;99.90
11511;DHT22;5812;48.864;9.190;2022-12-15T14:46:50;0.80;99.90
11511;DHT22;5812;48.864;9.190;2022-12-15T14:49:30;0.80;99.90
11511;DHT22;5812;48.864;9.190;2022-12-15T14:51:59;0.80;99.90
11511;DHT22;5812;48.864;9.190;2022-12-15T14:59:33;0.70;99.90
11511;DHT22;5812;48.864;9.190;2022-12-15T15:02:16;0.70;99.90
11511;DHT22;5812;48.864;9.190;2022-12-15T15:05:03;0.70;99.90
11511;DHT22;5812;48.864;9.190;2022-12-15T15:07:34;0.70;99.90
11511;DHT22;5812;48.864;9.190;2022-12-15T15:10:03;0.70;99.90
11511;DHT22;5812;48.864;9.190;2022-12-15T15:12:45;0.60;99.90
11511;DHT22;5812;48.864;9.190;2022-12-15T15:15:17;0.60;99.90
11511;DHT22;5812;48.864;9.190;2022-12-15T15:17:57;0.60;99.90
11511;DHT22;5812;48.864;9.190;2022-12-15T15:20:30;0.50;99.90
11511;DHT22;5812;48.864;9.190;2022-12-15T15:25:40;0.50;99.90
11511;DHT22;5812;48.864;9.190;2022-12-15T15:30:59;0.60;99.90
11511;DHT22;5812;48.864;9.190;2022-12-15T15:33:30;0.60;99.90
11511;DHT22;5812;48.864;9.190;2022-12-15T15:35:58;0.60;99.90
11511;DHT22;5812;48.864;9.190;2022-12-15T15:38:31;0.50;99.90
11511;DHT22;5812;48.864;9.190;2022-12-15T15:41:00;0.50;99.90
11511;DHT22;5812;48.864;9.190;2022-12-15T15:43:27;0.50;99.90
11511;DHT22;5812;48.864;9.190;2022-12-15T15:46:01;0.60;99.90
11511;DHT22;5812;48.864;9.190;2022-12-15T15:48:35;0.50;99.90
11511;DHT22;5812;48.864;9.190;2022-12-15T15:51:03;0.50;99.90
11511;DHT22;5812;48.864;9.190;2022-12-15T15:53:32;0.50;99.90
11511;DHT22;5812;48.864;9.190;2022-12-15T15:55:58;0.50;99.90
11511;DHT22;5812;48.864;9.190;2022-12-15T15:58:24;0.50;99.90
11511;DHT22;5812;48.864;9.190;2022-12-15T16:00:50;0.40;99.90
11511;DHT22;5812;48.864;9.190;2022-12-15T16:03:15;0.40;99.90
11511;DHT22;5812;48.864;9.190;2022-12-15T16:05:41;0.50;99.90
11511;DHT22;5812;48.864;9.190;2022-12-15T16:08:13;0.50;99.90
11511;DHT22;5812;48.864;9.190;2022-12-15T16:10:42;0.40;99.90
11511;DHT22;5812;48.864;9.190;2022-12-15T16:13:10;0.40;99.90
11511;DHT22;5812;48.864;9.190;2022-12-15T16:15:36;0.40;99.90
11511;DHT22;5812;48.864;9.190;2022-12-15T16:18:02;0.40;99.90
11511;DHT22;5812;48.864;9.190;2022-12-15T16:20:29;0.40;99.90
11511;DHT22;5812;48.864;9.190;2022-12-15T16:23:00;0.40;99.90
11511;DHT22;5812;48.864;9.190;2022-12-15T16:25:30;0.40;99.90
11511;DHT22;5812;48.864;9.190;2022-12-15T16:27:57;0.40;99.90
11511;DHT22;5812;48.864;9.190;2022-12-15T16:30:24;0.40;99.90
11511;DHT22;5812;48.864;9.190;2022-12-15T16:32:51;0.40;99.90
11511;DHT22;5812;48.864;9.190;2022-12-15T16:35:17;0.40;99.90
11511;DHT22;5812;48.864;9.190;2022-12-15T16:37:43;0.40;99.90
11511;DHT22;5812;48.864;9.190;2022-12-15T16:40:16;0.40;99.90
11511;DHT22;5812;48.864;9.190;2022-12-15T16:42:47;0.40;99.90
11511;DHT22;5812;48.864;9.190;2022-12-15T16:45:16;0.40;99.90
11511;DHT22;5812;48.864;9.190;2022-12-15T16:47:45;0.40;99.90
11511;DHT22;5812;48.864;9.190;2022-12-15T16:50:15;0.40;99.90
11511;DHT22;5812;48.864;9.190;2022-12-15T16:52:43;0.40;99.90
11511;DHT22;5812;48.864;9.190;2022-12-15T16:55:31;0.40;99.90
11511;DHT22;5812;48.864;9.190;2022-12-15T16:58:08;0.40;99.90
11511;DHT22;5812;48.864;9.190;2022-12-15T17:00:35;0.40;99.90
11511;DHT22;5812;48.864;9.190;2022-12-15T17:03:01;0.40;99.90
11511;DHT22;5812;48.864;9.190;2022-12-15T17:05:30;0.50;99.90
11511;DHT22;5812;48.864;9.190;2022-12-15T17:07:58;0.50;99.90
11511;DHT22;5812;48.864;9.190;2022-12-15T17:10:26;0.40;99.90
11511;DHT22;5812;48.864;9.190;2022-12-15T17:13:06;0.40;99.90
11511;DHT22;5812;48.864;9.190;2022-12-15T17:15:35;0.40;99.90
11511;DHT22;5812;48.864;9.190;2022-12-15T17:18:04;0.40;99.90
11511;DHT22;5812;48.864;9.190;2022-12-15T17:20:30;0.40;99.90
11511;DHT22;5812;48.864;9.190;2022-12-15T17:23:02;0.40;99.90
11511;DHT22;5812;48.864;9.190;2022-12-15T17:25:36;0.30;99.90
11511;DHT22;5812;48.864;9.190;2022-12-15T17:28:03;0.40;99.90
11511;DHT22;5812;48.864;9.190;2022-12-15T17:30:30;0.40;99.90
11511;DHT22;5812;48.864;9.190;2022-12-15T17:32:56;0.30;99.90
11511;DHT22;5812;48.864;9.190;2022-12-15T17:35:23;0.40;99.90
11511;DHT22;5812;48.864;9.190;2022-12-15T17:37:48;0.40;99.90
11511;DHT22;5812;48.864;9.190;2022-12-15T17:40:20;0.30;99.90
11511;DHT22;5812;48.864;9.190;2022-12-15T17:42:46;0.30;99.90
11511;DHT22;5812;48.864;9.190;2022-12-15T17:45:18;0.40;99.90
11511;DHT22;5812;48.864;9.190;2022-12-15T17:47:44;0.30;99.90
11511;DHT22;5812;48.864;9.190;2022-12-15T17:50:10;0.40;99.90
11511;DHT22;5812;48.864;9.190;2022-12-15T17:52:36;0.40;99.90
11511;DHT22;5812;48.864;9.190;2022-12-15T17:55:05;0.40;99.90
11511;DHT22;5812;48.864;9.190;2022-12-15T17:57:39;0.30;99.90
11511;DHT22;5812;48.864;9.190;2022-12-15T18:00:28;0.30;99.90
11511;DHT22;5812;48.864;9.190;2022-12-15T18:02:55;0.30;99.90
11511;DHT22;5812;48.864;9.190;2022-12-15T18:05:24;0.30;99.90
11511;DHT22;5812;48.864;9.190;2022-12-15T18:07:56;0.30;99.90
11511;DHT22;5812;48.864;9.190;2022-12-15T18:10:31;0.30;99.90
11511;DHT22;5812;48.864;9.190;2022-12-15T18:12:58;0.30;99.90
11511;DHT22;5812;48.864;9.190;2022-12-15T18:15:27;0.30;99.90
11511;DHT22;5812;48.864;9.190;2022-12-15T18:17:53;0.30;99.90
11511;DHT22;5812;48.864;9.190;2022-12-15T18:20:20;0.30;99.90
11511;DHT22;5812;48.864;9.190;2022-12-15T18:22:47;0.30;99.90
11511;DHT22;5812;48.864;9.190;2022-12-15T18:25:31;0.20;99.90
11511;DHT22;5812;48.864;9.190;2022-12-15T18:27:56;0.20;99.90
11511;DHT22;5812;48.864;9.190;2022-12-15T18:30:25;0.20;99.90